sensor_id;sensor_type;location;lat;lon;timestamp;temperature;humidity
6758;DHT22;3416;53.074;8.822;2024-02-04T00:00:11;8.80;99.90
6758;DHT22;3416;53.074;8.822;2024-02-04T00:02:40;8.70;99.90
6758;DHT22;3416;53.074;8.822;2024-02-04T00:05:07;8.70;99.90
6758;DHT22;3416;53.074;8.822;2024-02-04T00:07:34;8.70;99.90
6758;DHT22;3416;53.074;8.822;2024-02-04T00:10:01;8.70;99.90
6758;DHT22;3416;53.074;8.822;2024-02-04T00:12:28;8.70;99.90
6758;DHT22;3416;53.074;8.822;2024-02-04T00:14:55;8.70;99.90
6758;DHT22;3416;53.074;8.822;2024-02-04T00:17:23;8.60;99.90
6758;DHT22;3416;53.074;8.822;2024-02-04T00:19:56;8.60;99.90
6758;DHT22;3416;53.074;8.822;2024-02-04T00:22:23;8.60;99.90
6758;DHT22;3416;53.074;8.822;2024-02-04T00:24:52;8.50;99.90
6758;DHT22;3416;53.074;8.822;2024-02-04T00:27:19;8.50;99.90
6758;DHT22;3416;53.074;8.822;2024-02-04T00:29:46;8.40;99.90
6758;DHT22;3416;53.074;8.822;2024-02-04T00:32:13;8.40;99.90
6758;DHT22;3416;53.074;8.822;2024-02-04T00:34:40;8.30;99.90
6758;DHT22;3416;53.074;8.822;2024-02-04T00:37:08;8.30;99.90
6758;DHT22;3416;53.074;8.822;2024-02-04T00:39:35;8.30;99.90
6758;DHT22;3416;53.074;8.822;2024-02-04T00:42:02;8.30;99.90
6758;DHT22;3416;53.074;8.822;2024-02-04T00:44:29;8.20;99.90
6758;DHT22;3416;53.074;8.822;2024-02-04T00:46:56;8.20;99.90
6758;DHT22;3416;53.074;8.822;2024-02-04T00:49:23;8.20;99.90
6758;DHT22;3416;53.074;8.822;2024-02-04T00:51:52;8.20;99.90
6758;DHT22;3416;53.074;8.822;2024-02-04T00:54:20;8.20;99.90
6758;DHT22;3416;53.074;8.822;2024-02-04T00:56:47;8.20;99.90
6758;DHT22;3416;53.074;8.822;2024-02-04T00:59:14;8.20;99.90
6758;DHT22;3416;53.074;8.822;2024-02-04T01:01:41;8.20;99.90
6758;DHT22;3416;53.074;8.822;2024-02-04T01:04:09;8.10;99.90
6758;DHT22;3416;53.074;8.822;2024-02-04T01:06:36;8.10;99.90
6758;DHT22;3416;53.074;8.822;2024-02-04T01:09:03;8.10;99.90
6758;DHT22;3416;53.074;8.822;2024-02-04T01:11:31;8.10;99.90
6758;DHT22;3416;53.074;8.822;2024-02-04T01:13:58;8.00;99.90
6758;DHT22;3416;53.074;8.822;2024-02-04T01:16:25;8.10;99.90
6758;DHT22;3416;53.074;8.822;2024-02-04T01:18:53;8.00;99.90
6758;DHT22;3416;53.074;8.822;2024-02-04T01:21:20;8.00;99.90
6758;DHT22;3416;53.074;8.822;2024-02-04T01:23:47;8.00;99.90
6758;DHT22;3416;53.074;8.822;2024-02-04T01:26:13;7.90;99.90
6758;DHT22;3416;53.074;8.822;2024-02-04T01:28:42;7.90;99.90
6758;DHT22;3416;53.074;8.822;2024-02-04T01:31:09;7.90;99.90
6758;DHT22;3416;53.074;8.822;2024-02-04T01:33:36;7.90;99.90
6758;DHT22;3416;53.074;8.822;2024-02-04T01:36:04;8.00;99.90
6758;DHT22;3416;53.074;8.822;2024-02-04T01:38:31;8.00;99.90
6758;DHT22;3416;53.074;8.822;2024-02-04T01:40:58;7.90;99.90
6758;DHT22;3416;53.074;8.822;2024-02-04T01:43:25;7.90;99.90
6758;DHT22;3416;53.074;8.822;2024-02-04T01:45:53;8.00;99.90
6758;DHT22;3416;53.074;8.822;2024-02-04T01:48:21;8.00;99.90
6758;DHT22;3416;53.074;8.822;2024-02-04T01:50:50;8.00;99.90
6758;DHT22;3416;53.074;8.822;2024-02-04T01:53:18;8.00;99.90
6758;DHT22;3416;53.074;8.822;2024-02-04T01:55:47;7.90;99.90
6758;DHT22;3416;53.074;8.822;2024-02-04T01:58:14;7.90;99.90
6758;DHT22;3416;53.074;8.822;2024-02-04T02:00:41;7.90;99.90
6758;DHT22;3416;53.074;8.822;2024-02-04T02:03:12;8.00;99.90
6758;DHT22;3416;53.074;8.822;2024-02-04T02:05:40;7.90;99.90
6758;DHT22;3416;53.074;8.822;2024-02-04T02:08:07;7.90;99.90
6758;DHT22;3416;53.074;8.822;2024-02-04T02:10:35;7.90;99.90
6758;DHT22;3416;53.074;8.822;2024-02-04T02:13:09;7.90;99.90
6758;DHT22;3416;53.074;8.822;2024-02-04T02:15:42;7.90;99.90
6758;DHT22;3416;53.074;8.822;2024-02-04T02:18:17;7.90;99.90
6758;DHT22;3416;53.074;8.822;2024-02-04T02:21:03;7.90;99.90
6758;DHT22;3416;53.074;8.822;2024-02-04T02:23:43;7.90;99.90
6758;DHT22;3416;53.074;8.822;2024-02-04T02:26:16;7.90;99.90
6758;DHT22;3416;53.074;8.822;2024-02-04T02:28:44;7.90;99.90
6758;DHT22;3416;53.074;8.822;2024-02-04T02:31:11;7.90;99.90
6758;DHT22;3416;53.074;8.822;2024-02-04T02:33:38;7.80;99.90
6758;DHT22;3416;53.074;8.822;2024-02-04T02:36:10;7.80;99.90
6758;DHT22;3416;53.074;8.822;2024-02-04T02:38:44;7.80;99.90
6758;DHT22;3416;53.074;8.822;2024-02-04T02:41:13;7.80;99.90
6758;DHT22;3416;53.074;8.822;2024-02-04T02:43:43;7.80;99.90
6758;DHT22;3416;53.074;8.822;2024-02-04T02:46:11;7.80;99.90
6758;DHT22;3416;53.074;8.822;2024-02-04T02:48:38;7.80;99.90
6758;DHT22;3416;53.074;8.822;2024-02-04T02:51:05;7.80;99.90
6758;DHT22;3416;53.074;8.822;2024-02-04T02:53:32;7.80;99.90
6758;DHT22;3416;53.074;8.822;2024-02-04T02:55:59;7.80;99.90
6758;DHT22;3416;53.074;8.822;2024-02-04T02:58:26;7.80;99.90
6758;DHT22;3416;53.074;8.822;2024-02-04T03:00:54;7.80;99.90
6758;DHT22;3416;53.074;8.822;2024-02-04T03:03:21;7.80;99.90
6758;DHT22;3416;53.074;8.822;2024-02-04T03:05:48;7.80;99.90
6758;DHT22;3416;53.074;8.822;2024-02-04T03:08:15;7.80;99.90
6758;DHT22;3416;53.074;8.822;2024-02-04T03:10:42;7.80;99.90
6758;DHT22;3416;53.074;8.822;2024-02-04T03:13:09;7.80;99.90
6758;DHT22;3416;53.074;8.822;2024-02-04T03:15:36;7.70;99.90
6758;DHT22;3416;53.074;8.822;2024-02-04T03:18:04;7.70;99.90
6758;DHT22;3416;53.074;8.822;2024-02-04T03:20:31;7.70;99.90
6758;DHT22;3416;53.074;8.822;2024-02-04T03:22:59;7.60;99.90
6758;DHT22;3416;53.074;8.822;2024-02-04T03:25:27;7.60;99.90
6758;DHT22;3416;53.074;8.822;2024-02-04T03:27:55;7.60;99.90
6758;DHT22;3416;53.074;8.822;2024-02-04T03:30:22;7.60;99.90
6758;DHT22;3416;53.074;8.822;2024-02-04T03:32:49;7.60;99.90
6758;DHT22;3416;53.074;8.822;2024-02-04T03:35:18;7.60;99.90
6758;DHT22;3416;53.074;8.822;2024-02-04T03:37:45;7.60;99.90
6758;DHT22;3416;53.074;8.822;2024-02-04T03:40:12;7.60;99.90
6758;DHT22;3416;53.074;8.822;2024-02-04T03:42:39;7.60;99.90
6758;DHT22;3416;53.074;8.822;2024-02-04T03:45:07;7.60;99.90
6758;DHT22;3416;53.074;8.822;2024-02-04T03:47:34;7.50;99.90
6758;DHT22;3416;53.074;8.822;2024-02-04T03:50:01;7.50;99.90
6758;DHT22;3416;53.074;8.822;2024-02-04T03:52:30;7.50;99.90
6758;DHT22;3416;53.074;8.822;2024-02-04T03:54:57;7.50;99.90
6758;DHT22;3416;53.074;8.822;2024-02-04T03:57:26;7.50;99.90
6758;DHT22;3416;53.074;8.822;2024-02-04T03:59:53;7.50;99.90
6758;DHT22;3416;53.074;8.822;2024-02-04T04:02:20;7.50;99.90
6758;DHT22;3416;53.074;8.822;2024-02-04T04:04:47;7.50;99.90
6758;DHT22;3416;53.074;8.822;2024-02-04T04:07:14;7.40;99.90
6758;DHT22;3416;53.074;8.822;2024-02-04T04:09:42;7.40;99.90
6758;DHT22;3416;53.074;8.822;2024-02-04T04:12:09;7.40;99.90
6758;DHT22;3416;53.074;8.822;2024-02-04T04:14:36;7.40;99.90
6758;DHT22;3416;53.074;8.822;2024-02-04T04:17:03;7.40;99.90
6758;DHT22;3416;53.074;8.822;2024-02-04T04:19:30;7.40;99.90
6758;DHT22;3416;53.074;8.822;2024-02-04T04:21:58;7.50;99.90
6758;DHT22;3416;53.074;8.822;2024-02-04T04:24:26;7.50;99.90
6758;DHT22;3416;53.074;8.822;2024-02-04T04:26:55;7.50;99.90
6758;DHT22;3416;53.074;8.822;2024-02-04T04:29:22;7.50;99.90
6758;DHT22;3416;53.074;8.822;2024-02-04T04:31:49;7.60;99.90
6758;DHT22;3416;53.074;8.822;2024-02-04T04:34:17;7.60;99.90
6758;DHT22;3416;53.074;8.822;2024-02-04T04:36:45;7.60;99.90
6758;DHT22;3416;53.074;8.822;2024-02-04T04:39:12;7.70;99.90
6758;DHT22;3416;53.074;8.822;2024-02-04T04:41:40;7.70;99.90
6758;DHT22;3416;53.074;8.822;2024-02-04T04:44:08;7.70;99.90
6758;DHT22;3416;53.074;8.822;2024-02-04T04:46:37;7.70;99.90
6758;DHT22;3416;53.074;8.822;2024-02-04T04:49:04;7.70;99.90
6758;DHT22;3416;53.074;8.822;2024-02-04T04:51:31;7.70;99.90
6758;DHT22;3416;53.074;8.822;2024-02-04T04:53:59;7.70;99.90
6758;DHT22;3416;53.074;8.822;2024-02-04T04:56:27;7.80;99.90
6758;DHT22;3416;53.074;8.822;2024-02-04T04:58:53;7.60;99.90
6758;DHT22;3416;53.074;8.822;2024-02-04T05:01:22;7.60;99.90
6758;DHT22;3416;53.074;8.822;2024-02-04T05:03:49;7.60;99.90
6758;DHT22;3416;53.074;8.822;2024-02-04T05:06:16;7.50;99.90
6758;DHT22;3416;53.074;8.822;2024-02-04T05:08:43;7.50;99.90
6758;DHT22;3416;53.074;8.822;2024-02-04T05:11:10;7.40;99.90
6758;DHT22;3416;53.074;8.822;2024-02-04T05:13:39;7.40;99.90
6758;DHT22;3416;53.074;8.822;2024-02-04T05:16:06;7.40;99.90
6758;DHT22;3416;53.074;8.822;2024-02-04T05:18:34;7.40;99.90
6758;DHT22;3416;53.074;8.822;2024-02-04T05:21:02;7.40;99.90
6758;DHT22;3416;53.074;8.822;2024-02-04T05:23:29;7.50;99.90
6758;DHT22;3416;53.074;8.822;2024-02-04T05:25:56;7.50;99.90
6758;DHT22;3416;53.074;8.822;2024-02-04T05:28:23;7.50;99.90
6758;DHT22;3416;53.074;8.822;2024-02-04T05:30:50;7.50;99.90
6758;DHT22;3416;53.074;8.822;2024-02-04T05:33:17;7.40;99.90
6758;DHT22;3416;53.074;8.822;2024-02-04T05:35:45;7.40;99.90
6758;DHT22;3416;53.074;8.822;2024-02-04T05:38:12;7.40;99.90
6758;DHT22;3416;53.074;8.822;2024-02-04T05:40:39;7.40;99.90
6758;DHT22;3416;53.074;8.822;2024-02-04T05:43:06;7.40;99.90
6758;DHT22;3416;53.074;8.822;2024-02-04T05:45:36;7.40;99.90
6758;DHT22;3416;53.074;8.822;2024-02-04T05:48:04;7.40;99.90
6758;DHT22;3416;53.074;8.822;2024-02-04T05:50:31;7.40;99.90
6758;DHT22;3416;53.074;8.822;2024-02-04T05:53:00;7.40;99.90
6758;DHT22;3416;53.074;8.822;2024-02-04T05:55:27;7.40;99.90
6758;DHT22;3416;53.074;8.822;2024-02-04T05:57:54;7.40;99.90
6758;DHT22;3416;53.074;8.822;2024-02-04T06:00:21;7.40;99.90
6758;DHT22;3416;53.074;8.822;2024-02-04T06:02:48;7.30;99.90
6758;DHT22;3416;53.074;8.822;2024-02-04T06:05:15;7.40;99.90
6758;DHT22;3416;53.074;8.822;2024-02-04T06:07:43;7.40;99.90
6758;DHT22;3416;53.074;8.822;2024-02-04T06:10:11;7.40;99.90
6758;DHT22;3416;53.074;8.822;2024-02-04T06:12:38;7.30;99.90
6758;DHT22;3416;53.074;8.822;2024-02-04T06:15:12;7.30;99.90
6758;DHT22;3416;53.074;8.822;2024-02-04T06:17:39;7.40;99.90
6758;DHT22;3416;53.074;8.822;2024-02-04T06:20:06;7.40;99.90
6758;DHT22;3416;53.074;8.822;2024-02-04T06:22:34;7.40;99.90
6758;DHT22;3416;53.074;8.822;2024-02-04T06:25:01;7.40;99.90
6758;DHT22;3416;53.074;8.822;2024-02-04T06:27:31;7.40;99.90
6758;DHT22;3416;53.074;8.822;2024-02-04T06:29:57;7.30;99.90
6758;DHT22;3416;53.074;8.822;2024-02-04T06:32:24;7.30;99.90
6758;DHT22;3416;53.074;8.822;2024-02-04T06:34:51;7.30;99.90
6758;DHT22;3416;53.074;8.822;2024-02-04T06:37:21;7.40;99.90
6758;DHT22;3416;53.074;8.822;2024-02-04T06:39:48;7.30;99.90
6758;DHT22;3416;53.074;8.822;2024-02-04T06:42:15;7.40;99.90
6758;DHT22;3416;53.074;8.822;2024-02-04T06:44:44;7.40;99.90
6758;DHT22;3416;53.074;8.822;2024-02-04T06:47:11;7.40;99.90
6758;DHT22;3416;53.074;8.822;2024-02-04T06:49:39;7.50;99.90
6758;DHT22;3416;53.074;8.822;2024-02-04T06:52:07;7.50;99.90
6758;DHT22;3416;53.074;8.822;2024-02-04T06:54:34;7.50;99.90
6758;DHT22;3416;53.074;8.822;2024-02-04T06:57:01;7.50;99.90
6758;DHT22;3416;53.074;8.822;2024-02-04T06:59:28;7.50;99.90
6758;DHT22;3416;53.074;8.822;2024-02-04T07:01:56;7.50;99.90
6758;DHT22;3416;53.074;8.822;2024-02-04T07:04:23;7.50;99.90
6758;DHT22;3416;53.074;8.822;2024-02-04T07:06:50;7.60;99.90
6758;DHT22;3416;53.074;8.822;2024-02-04T07:09:18;7.60;99.90
6758;DHT22;3416;53.074;8.822;2024-02-04T07:11:45;7.50;99.90
6758;DHT22;3416;53.074;8.822;2024-02-04T07:14:12;7.60;99.90
6758;DHT22;3416;53.074;8.822;2024-02-04T07:16:39;7.60;99.90
6758;DHT22;3416;53.074;8.822;2024-02-04T07:19:07;7.60;99.90
6758;DHT22;3416;53.074;8.822;2024-02-04T07:21:35;7.60;99.90
6758;DHT22;3416;53.074;8.822;2024-02-04T07:24:02;7.60;99.90
6758;DHT22;3416;53.074;8.822;2024-02-04T07:26:29;7.70;99.90
6758;DHT22;3416;53.074;8.822;2024-02-04T07:28:55;7.70;99.90
6758;DHT22;3416;53.074;8.822;2024-02-04T07:31:22;7.70;99.90
6758;DHT22;3416;53.074;8.822;2024-02-04T07:33:49;7.80;99.90
6758;DHT22;3416;53.074;8.822;2024-02-04T07:36:18;7.80;99.90
6758;DHT22;3416;53.074;8.822;2024-02-04T07:38:44;7.80;99.90
6758;DHT22;3416;53.074;8.822;2024-02-04T07:41:13;7.90;99.90
6758;DHT22;3416;53.074;8.822;2024-02-04T07:43:40;7.80;99.90
6758;DHT22;3416;53.074;8.822;2024-02-04T07:46:09;7.80;99.90
6758;DHT22;3416;53.074;8.822;2024-02-04T07:48:37;7.80;99.90
6758;DHT22;3416;53.074;8.822;2024-02-04T07:51:04;7.80;99.90
6758;DHT22;3416;53.074;8.822;2024-02-04T07:53:32;7.90;99.90
6758;DHT22;3416;53.074;8.822;2024-02-04T07:55:59;7.90;99.90
6758;DHT22;3416;53.074;8.822;2024-02-04T07:58:28;8.00;99.90
6758;DHT22;3416;53.074;8.822;2024-02-04T08:00:55;8.00;99.90
6758;DHT22;3416;53.074;8.822;2024-02-04T08:03:22;8.00;99.90
6758;DHT22;3416;53.074;8.822;2024-02-04T08:05:49;8.00;99.90
6758;DHT22;3416;53.074;8.822;2024-02-04T08:08:16;8.10;99.90
6758;DHT22;3416;53.074;8.822;2024-02-04T08:10:44;8.10;99.90
6758;DHT22;3416;53.074;8.822;2024-02-04T08:13:11;8.20;99.90
6758;DHT22;3416;53.074;8.822;2024-02-04T08:15:38;8.30;99.90
6758;DHT22;3416;53.074;8.822;2024-02-04T08:18:05;8.30;99.90
6758;DHT22;3416;53.074;8.822;2024-02-04T08:20:31;8.40;99.90
6758;DHT22;3416;53.074;8.822;2024-02-04T08:22:58;8.30;99.90
6758;DHT22;3416;53.074;8.822;2024-02-04T08:25:25;8.30;99.90
6758;DHT22;3416;53.074;8.822;2024-02-04T08:27:54;8.40;99.90
6758;DHT22;3416;53.074;8.822;2024-02-04T08:30:21;8.40;99.90
6758;DHT22;3416;53.074;8.822;2024-02-04T08:32:48;8.40;99.90
6758;DHT22;3416;53.074;8.822;2024-02-04T08:35:15;8.40;99.90
6758;DHT22;3416;53.074;8.822;2024-02-04T08:37:42;8.40;99.90
6758;DHT22;3416;53.074;8.822;2024-02-04T08:40:09;8.40;99.90
6758;DHT22;3416;53.074;8.822;2024-02-04T08:42:37;8.40;99.90
6758;DHT22;3416;53.074;8.822;2024-02-04T08:45:06;8.50;99.90
6758;DHT22;3416;53.074;8.822;2024-02-04T08:47:33;8.50;99.90
6758;DHT22;3416;53.074;8.822;2024-02-04T08:50:00;8.60;99.90
6758;DHT22;3416;53.074;8.822;2024-02-04T08:52:27;8.60;99.90
6758;DHT22;3416;53.074;8.822;2024-02-04T08:54:55;8.60;99.90
6758;DHT22;3416;53.074;8.822;2024-02-04T08:57:22;8.60;99.90
6758;DHT22;3416;53.074;8.822;2024-02-04T08:59:48;8.60;99.90
6758;DHT22;3416;53.074;8.822;2024-02-04T09:02:17;8.60;99.90
6758;DHT22;3416;53.074;8.822;2024-02-04T09:04:45;8.60;99.90
6758;DHT22;3416;53.074;8.822;2024-02-04T09:07:13;8.60;99.90
6758;DHT22;3416;53.074;8.822;2024-02-04T09:09:40;8.60;99.90
6758;DHT22;3416;53.074;8.822;2024-02-04T09:12:08;8.70;99.90
6758;DHT22;3416;53.074;8.822;2024-02-04T09:14:35;8.80;99.90
6758;DHT22;3416;53.074;8.822;2024-02-04T09:17:02;8.90;99.90
6758;DHT22;3416;53.074;8.822;2024-02-04T09:19:32;8.90;99.90
6758;DHT22;3416;53.074;8.822;2024-02-04T09:21:59;8.90;99.90
6758;DHT22;3416;53.074;8.822;2024-02-04T09:24:27;9.00;99.90
6758;DHT22;3416;53.074;8.822;2024-02-04T09:26:54;9.10;99.90
6758;DHT22;3416;53.074;8.822;2024-02-04T09:29:21;9.10;99.90
6758;DHT22;3416;53.074;8.822;2024-02-04T09:31:48;9.10;99.90
6758;DHT22;3416;53.074;8.822;2024-02-04T09:34:15;9.20;99.90
6758;DHT22;3416;53.074;8.822;2024-02-04T09:36:44;9.30;99.90
6758;DHT22;3416;53.074;8.822;2024-02-04T09:39:11;9.20;99.90
6758;DHT22;3416;53.074;8.822;2024-02-04T09:41:39;9.30;99.90
6758;DHT22;3416;53.074;8.822;2024-02-04T09:44:06;9.10;99.90
6758;DHT22;3416;53.074;8.822;2024-02-04T09:46:34;9.20;99.90
6758;DHT22;3416;53.074;8.822;2024-02-04T09:49:01;9.00;99.90
6758;DHT22;3416;53.074;8.822;2024-02-04T09:51:28;9.20;99.90
6758;DHT22;3416;53.074;8.822;2024-02-04T09:54:00;9.30;99.90
6758;DHT22;3416;53.074;8.822;2024-02-04T09:56:30;9.30;99.90
6758;DHT22;3416;53.074;8.822;2024-02-04T09:58:58;9.40;99.90
6758;DHT22;3416;53.074;8.822;2024-02-04T10:01:26;9.40;99.90
6758;DHT22;3416;53.074;8.822;2024-02-04T10:03:53;9.40;99.90
6758;DHT22;3416;53.074;8.822;2024-02-04T10:06:20;9.50;99.90
6758;DHT22;3416;53.074;8.822;2024-02-04T10:08:47;9.70;99.90
6758;DHT22;3416;53.074;8.822;2024-02-04T10:11:16;9.90;99.90
6758;DHT22;3416;53.074;8.822;2024-02-04T10:13:44;9.90;99.90
6758;DHT22;3416;53.074;8.822;2024-02-04T10:16:12;9.90;99.90
6758;DHT22;3416;53.074;8.822;2024-02-04T10:18:41;9.90;99.90
6758;DHT22;3416;53.074;8.822;2024-02-04T10:21:15;10.00;99.90
6758;DHT22;3416;53.074;8.822;2024-02-04T10:23:43;9.70;99.90
6758;DHT22;3416;53.074;8.822;2024-02-04T10:26:10;9.70;99.90
6758;DHT22;3416;53.074;8.822;2024-02-04T10:28:39;9.80;99.90
6758;DHT22;3416;53.074;8.822;2024-02-04T10:31:08;9.90;99.90
6758;DHT22;3416;53.074;8.822;2024-02-04T10:33:36;9.90;99.90
6758;DHT22;3416;53.074;8.822;2024-02-04T10:36:03;9.90;99.90
6758;DHT22;3416;53.074;8.822;2024-02-04T10:38:32;9.90;99.90
6758;DHT22;3416;53.074;8.822;2024-02-04T10:41:00;10.00;99.90
6758;DHT22;3416;53.074;8.822;2024-02-04T10:43:31;10.20;99.90
6758;DHT22;3416;53.074;8.822;2024-02-04T10:46:02;10.40;99.90
6758;DHT22;3416;53.074;8.822;2024-02-04T10:48:35;10.40;99.90
6758;DHT22;3416;53.074;8.822;2024-02-04T10:51:11;10.40;99.90
6758;DHT22;3416;53.074;8.822;2024-02-04T10:53:41;10.60;99.90
6758;DHT22;3416;53.074;8.822;2024-02-04T10:56:13;10.60;99.90
6758;DHT22;3416;53.074;8.822;2024-02-04T10:58:41;10.50;99.90
6758;DHT22;3416;53.074;8.822;2024-02-04T11:01:10;10.60;99.90
6758;DHT22;3416;53.074;8.822;2024-02-04T11:03:39;10.50;99.90
6758;DHT22;3416;53.074;8.822;2024-02-04T11:06:08;10.40;99.90
6758;DHT22;3416;53.074;8.822;2024-02-04T11:08:35;10.40;99.90
6758;DHT22;3416;53.074;8.822;2024-02-04T11:11:02;10.40;99.90
6758;DHT22;3416;53.074;8.822;2024-02-04T11:13:29;10.30;99.90
6758;DHT22;3416;53.074;8.822;2024-02-04T11:15:58;10.20;99.90
6758;DHT22;3416;53.074;8.822;2024-02-04T11:18:42;10.30;99.90
6758;DHT22;3416;53.074;8.822;2024-02-04T11:21:33;10.30;99.90
6758;DHT22;3416;53.074;8.822;2024-02-04T11:24:14;10.30;99.90
6758;DHT22;3416;53.074;8.822;2024-02-04T11:26:44;10.30;99.90
6758;DHT22;3416;53.074;8.822;2024-02-04T11:29:12;10.40;99.90
6758;DHT22;3416;53.074;8.822;2024-02-04T11:31:39;10.40;99.90
6758;DHT22;3416;53.074;8.822;2024-02-04T11:34:08;10.40;99.90
6758;DHT22;3416;53.074;8.822;2024-02-04T11:36:38;10.50;99.90
6758;DHT22;3416;53.074;8.822;2024-02-04T11:39:11;10.50;99.90
6758;DHT22;3416;53.074;8.822;2024-02-04T11:41:45;10.50;99.90
6758;DHT22;3416;53.074;8.822;2024-02-04T11:44:20;10.50;99.90
6758;DHT22;3416;53.074;8.822;2024-02-04T11:46:47;10.50;99.90
6758;DHT22;3416;53.074;8.822;2024-02-04T11:49:16;10.60;99.90
6758;DHT22;3416;53.074;8.822;2024-02-04T11:51:46;10.60;99.90
6758;DHT22;3416;53.074;8.822;2024-02-04T11:54:15;10.60;99.90
6758;DHT22;3416;53.074;8.822;2024-02-04T11:56:44;10.70;99.90
6758;DHT22;3416;53.074;8.822;2024-02-04T11:59:12;10.50;99.90
6758;DHT22;3416;53.074;8.822;2024-02-04T12:01:39;10.60;99.90
6758;DHT22;3416;53.074;8.822;2024-02-04T12:04:10;10.80;99.90
6758;DHT22;3416;53.074;8.822;2024-02-04T12:06:40;10.80;99.90
6758;DHT22;3416;53.074;8.822;2024-02-04T12:09:08;10.90;99.90
6758;DHT22;3416;53.074;8.822;2024-02-04T12:11:36;11.00;99.90
6758;DHT22;3416;53.074;8.822;2024-02-04T12:14:04;10.80;99.90
6758;DHT22;3416;53.074;8.822;2024-02-04T12:16:32;10.90;99.90
6758;DHT22;3416;53.074;8.822;2024-02-04T12:19:01;10.80;99.90
6758;DHT22;3416;53.074;8.822;2024-02-04T12:21:29;10.80;99.90
6758;DHT22;3416;53.074;8.822;2024-02-04T12:23:59;10.70;99.90
6758;DHT22;3416;53.074;8.822;2024-02-04T12:26:26;10.60;99.90
6758;DHT22;3416;53.074;8.822;2024-02-04T12:28:53;10.70;99.90
6758;DHT22;3416;53.074;8.822;2024-02-04T12:31:23;10.80;99.90
6758;DHT22;3416;53.074;8.822;2024-02-04T12:33:53;10.80;99.90
6758;DHT22;3416;53.074;8.822;2024-02-04T12:36:23;10.80;99.90
6758;DHT22;3416;53.074;8.822;2024-02-04T12:38:53;10.70;99.90
6758;DHT22;3416;53.074;8.822;2024-02-04T12:41:22;10.30;99.90
6758;DHT22;3416;53.074;8.822;2024-02-04T12:43:53;10.20;99.90
6758;DHT22;3416;53.074;8.822;2024-02-04T12:46:20;10.30;99.90
6758;DHT22;3416;53.074;8.822;2024-02-04T12:48:51;10.40;99.90
6758;DHT22;3416;53.074;8.822;2024-02-04T12:51:23;10.40;99.90
6758;DHT22;3416;53.074;8.822;2024-02-04T12:54:02;10.50;99.90
6758;DHT22;3416;53.074;8.822;2024-02-04T12:56:44;10.40;99.90
6758;DHT22;3416;53.074;8.822;2024-02-04T12:59:11;10.40;99.90
6758;DHT22;3416;53.074;8.822;2024-02-04T13:01:38;10.50;99.90
6758;DHT22;3416;53.074;8.822;2024-02-04T13:04:06;10.60;99.90
6758;DHT22;3416;53.074;8.822;2024-02-04T13:06:38;10.60;99.90
6758;DHT22;3416;53.074;8.822;2024-02-04T13:09:05;10.60;99.90
6758;DHT22;3416;53.074;8.822;2024-02-04T13:11:34;10.50;99.90
6758;DHT22;3416;53.074;8.822;2024-02-04T13:14:03;10.60;99.90
6758;DHT22;3416;53.074;8.822;2024-02-04T13:16:30;10.60;99.90
6758;DHT22;3416;53.074;8.822;2024-02-04T13:18:57;10.60;99.90
6758;DHT22;3416;53.074;8.822;2024-02-04T13:21:25;10.50;99.90
6758;DHT22;3416;53.074;8.822;2024-02-04T13:23:52;10.60;99.90
6758;DHT22;3416;53.074;8.822;2024-02-04T13:26:19;10.60;99.90
6758;DHT22;3416;53.074;8.822;2024-02-04T13:28:46;10.30;99.90
6758;DHT22;3416;53.074;8.822;2024-02-04T13:31:16;10.30;99.90
6758;DHT22;3416;53.074;8.822;2024-02-04T13:33:43;10.30;99.90
6758;DHT22;3416;53.074;8.822;2024-02-04T13:36:11;10.40;99.90
6758;DHT22;3416;53.074;8.822;2024-02-04T13:38:38;10.40;99.90
6758;DHT22;3416;53.074;8.822;2024-02-04T13:41:05;10.40;99.90
6758;DHT22;3416;53.074;8.822;2024-02-04T13:43:33;10.50;99.90
6758;DHT22;3416;53.074;8.822;2024-02-04T13:46:00;10.40;99.90
6758;DHT22;3416;53.074;8.822;2024-02-04T13:48:29;10.40;99.90
6758;DHT22;3416;53.074;8.822;2024-02-04T13:50:56;10.30;99.90
6758;DHT22;3416;53.074;8.822;2024-02-04T13:53:23;10.30;99.90
6758;DHT22;3416;53.074;8.822;2024-02-04T13:55:50;10.20;99.90
6758;DHT22;3416;53.074;8.822;2024-02-04T13:58:17;10.10;99.90
6758;DHT22;3416;53.074;8.822;2024-02-04T14:00:45;10.20;99.90
6758;DHT22;3416;53.074;8.822;2024-02-04T14:03:12;10.20;99.90
6758;DHT22;3416;53.074;8.822;2024-02-04T14:05:41;10.20;99.90
6758;DHT22;3416;53.074;8.822;2024-02-04T14:08:08;10.30;99.90
6758;DHT22;3416;53.074;8.822;2024-02-04T14:10:36;10.30;99.90
6758;DHT22;3416;53.074;8.822;2024-02-04T14:13:04;10.10;99.90
6758;DHT22;3416;53.074;8.822;2024-02-04T14:15:31;10.20;99.90
6758;DHT22;3416;53.074;8.822;2024-02-04T14:17:59;10.20;99.90
6758;DHT22;3416;53.074;8.822;2024-02-04T14:20:26;10.20;99.90
6758;DHT22;3416;53.074;8.822;2024-02-04T14:22:55;10.30;99.90
6758;DHT22;3416;53.074;8.822;2024-02-04T14:25:23;10.20;99.90
6758;DHT22;3416;53.074;8.822;2024-02-04T14:27:50;10.20;99.90
6758;DHT22;3416;53.074;8.822;2024-02-04T14:30:18;10.10;99.90
6758;DHT22;3416;53.074;8.822;2024-02-04T14:32:45;10.10;99.90
6758;DHT22;3416;53.074;8.822;2024-02-04T14:35:12;10.20;99.90
6758;DHT22;3416;53.074;8.822;2024-02-04T14:37:40;10.20;99.90
6758;DHT22;3416;53.074;8.822;2024-02-04T14:40:11;10.20;99.90
6758;DHT22;3416;53.074;8.822;2024-02-04T14:42:38;10.10;99.90
6758;DHT22;3416;53.074;8.822;2024-02-04T14:45:06;10.00;99.90
6758;DHT22;3416;53.074;8.822;2024-02-04T14:47:33;10.10;99.90
6758;DHT22;3416;53.074;8.822;2024-02-04T14:50:00;10.10;99.90
6758;DHT22;3416;53.074;8.822;2024-02-04T14:52:28;10.00;99.90
6758;DHT22;3416;53.074;8.822;2024-02-04T14:54:55;10.10;99.90
6758;DHT22;3416;53.074;8.822;2024-02-04T14:57:23;10.10;99.90
6758;DHT22;3416;53.074;8.822;2024-02-04T14:59:50;10.10;99.90
6758;DHT22;3416;53.074;8.822;2024-02-04T15:02:17;10.10;99.90
6758;DHT22;3416;53.074;8.822;2024-02-04T15:04:44;10.10;99.90
6758;DHT22;3416;53.074;8.822;2024-02-04T15:07:11;10.10;99.90
6758;DHT22;3416;53.074;8.822;2024-02-04T15:09:38;10.20;99.90
6758;DHT22;3416;53.074;8.822;2024-02-04T15:12:06;10.20;99.90
6758;DHT22;3416;53.074;8.822;2024-02-04T15:14:36;10.10;99.90
6758;DHT22;3416;53.074;8.822;2024-02-04T15:17:03;10.00;99.90
6758;DHT22;3416;53.074;8.822;2024-02-04T15:19:31;10.00;99.90
6758;DHT22;3416;53.074;8.822;2024-02-04T15:22:03;10.00;99.90
6758;DHT22;3416;53.074;8.822;2024-02-04T15:24:30;10.00;99.90
6758;DHT22;3416;53.074;8.822;2024-02-04T15:26:59;9.90;99.90
6758;DHT22;3416;53.074;8.822;2024-02-04T15:29:31;9.90;99.90
6758;DHT22;3416;53.074;8.822;2024-02-04T15:32:02;9.90;99.90
6758;DHT22;3416;53.074;8.822;2024-02-04T15:34:30;9.90;99.90
6758;DHT22;3416;53.074;8.822;2024-02-04T15:36:58;9.90;99.90
6758;DHT22;3416;53.074;8.822;2024-02-04T15:39:25;9.70;99.90
6758;DHT22;3416;53.074;8.822;2024-02-04T15:41:52;9.70;99.90
6758;DHT22;3416;53.074;8.822;2024-02-04T15:44:19;9.60;99.90
6758;DHT22;3416;53.074;8.822;2024-02-04T15:46:48;9.60;99.90
6758;DHT22;3416;53.074;8.822;2024-02-04T15:49:18;9.60;99.90
6758;DHT22;3416;53.074;8.822;2024-02-04T15:51:46;9.60;99.90
6758;DHT22;3416;53.074;8.822;2024-02-04T15:54:14;9.70;99.90
6758;DHT22;3416;53.074;8.822;2024-02-04T15:56:42;9.60;99.90
6758;DHT22;3416;53.074;8.822;2024-02-04T15:59:12;9.50;99.90
6758;DHT22;3416;53.074;8.822;2024-02-04T16:01:40;9.60;99.90
6758;DHT22;3416;53.074;8.822;2024-02-04T16:04:08;9.40;99.90
6758;DHT22;3416;53.074;8.822;2024-02-04T16:06:37;9.50;99.90
6758;DHT22;3416;53.074;8.822;2024-02-04T16:09:05;9.40;99.90
6758;DHT22;3416;53.074;8.822;2024-02-04T16:11:42;9.40;99.90
6758;DHT22;3416;53.074;8.822;2024-02-04T16:14:11;9.40;99.90
6758;DHT22;3416;53.074;8.822;2024-02-04T16:16:42;9.40;99.90